sensor_id;sensor_type;location;lat;lon;timestamp;P1;durP1;ratioP1;P2;durP2;ratioP2
41631;SDS011;37452;51.938;4.624;2023-07-30T00:01:46;14.20;;;1.88;;
41631;SDS011;37452;51.938;4.624;2023-07-30T00:04:12;7.57;;;1.60;;
41631;SDS011;37452;51.938;4.624;2023-07-30T00:06:37;13.25;;;1.73;;
41631;SDS011;37452;51.938;4.624;2023-07-30T00:09:02;9.48;;;2.03;;
41631;SDS011;37452;51.938;4.624;2023-07-30T00:11:29;8.90;;;1.85;;
41631;SDS011;37452;51.938;4.624;2023-07-30T00:13:55;10.73;;;1.65;;
41631;SDS011;37452;51.938;4.624;2023-07-30T00:16:20;13.80;;;1.50;;
41631;SDS011;37452;51.938;4.624;2023-07-30T00:18:46;9.93;;;1.63;;
41631;SDS011;37452;51.938;4.624;2023-07-30T00:21:11;15.35;;;2.03;;
41631;SDS011;37452;51.938;4.624;2023-07-30T00:23:36;10.82;;;2.10;;
41631;SDS011;37452;51.938;4.624;2023-07-30T00:26:02;11.43;;;1.98;;
41631;SDS011;37452;51.938;4.624;2023-07-30T00:28:27;8.23;;;1.83;;
41631;SDS011;37452;51.938;4.624;2023-07-30T00:30:52;9.98;;;1.75;;
41631;SDS011;37452;51.938;4.624;2023-07-30T00:33:18;9.15;;;2.17;;
41631;SDS011;37452;51.938;4.624;2023-07-30T00:35:43;11.10;;;2.08;;
41631;SDS011;37452;51.938;4.624;2023-07-30T00:38:08;12.27;;;2.70;;
41631;SDS011;37452;51.938;4.624;2023-07-30T00:40:39;12.48;;;2.05;;
41631;SDS011;37452;51.938;4.624;2023-07-30T00:43:05;15.50;;;2.35;;
41631;SDS011;37452;51.938;4.624;2023-07-30T00:45:30;11.85;;;2.13;;
41631;SDS011;37452;51.938;4.624;2023-07-30T00:47:56;8.07;;;1.88;;
41631;SDS011;37452;51.938;4.624;2023-07-30T00:50:22;5.30;;;1.58;;
41631;SDS011;37452;51.938;4.624;2023-07-30T00:52:47;11.40;;;1.77;;
41631;SDS011;37452;51.938;4.624;2023-07-30T00:55:13;12.60;;;2.22;;
41631;SDS011;37452;51.938;4.624;2023-07-30T00:57:39;11.55;;;2.20;;
41631;SDS011;37452;51.938;4.624;2023-07-30T01:00:06;9.48;;;1.85;;
41631;SDS011;37452;51.938;4.624;2023-07-30T01:02:34;14.18;;;1.92;;
41631;SDS011;37452;51.938;4.624;2023-07-30T01:05:00;9.05;;;2.25;;
41631;SDS011;37452;51.938;4.624;2023-07-30T01:07:26;12.82;;;2.13;;
41631;SDS011;37452;51.938;4.624;2023-07-30T01:09:51;6.88;;;1.83;;
41631;SDS011;37452;51.938;4.624;2023-07-30T01:12:17;13.88;;;2.70;;
41631;SDS011;37452;51.938;4.624;2023-07-30T01:14:44;12.93;;;2.25;;
41631;SDS011;37452;51.938;4.624;2023-07-30T01:17:11;15.18;;;2.03;;
41631;SDS011;37452;51.938;4.624;2023-07-30T01:19:36;6.90;;;1.60;;
41631;SDS011;37452;51.938;4.624;2023-07-30T01:22:02;13.23;;;2.38;;
41631;SDS011;37452;51.938;4.624;2023-07-30T01:24:27;8.70;;;1.73;;
41631;SDS011;37452;51.938;4.624;2023-07-30T01:27:01;14.70;;;2.50;;
41631;SDS011;37452;51.938;4.624;2023-07-30T01:29:33;12.50;;;2.20;;
41631;SDS011;37452;51.938;4.624;2023-07-30T01:32:07;11.77;;;2.40;;
41631;SDS011;37452;51.938;4.624;2023-07-30T01:34:34;9.07;;;2.10;;
41631;SDS011;37452;51.938;4.624;2023-07-30T01:37:01;11.85;;;2.40;;
41631;SDS011;37452;51.938;4.624;2023-07-30T01:39:29;10.30;;;2.17;;
41631;SDS011;37452;51.938;4.624;2023-07-30T01:41:56;19.70;;;2.20;;
41631;SDS011;37452;51.938;4.624;2023-07-30T01:44:21;11.23;;;2.63;;
41631;SDS011;37452;51.938;4.624;2023-07-30T01:46:46;9.35;;;2.63;;
41631;SDS011;37452;51.938;4.624;2023-07-30T01:49:12;13.20;;;1.88;;
41631;SDS011;37452;51.938;4.624;2023-07-30T01:51:37;14.98;;;2.60;;
41631;SDS011;37452;51.938;4.624;2023-07-30T01:54:02;11.43;;;2.35;;
41631;SDS011;37452;51.938;4.624;2023-07-30T01:56:28;10.15;;;2.40;;
41631;SDS011;37452;51.938;4.624;2023-07-30T01:58:53;14.82;;;2.60;;
41631;SDS011;37452;51.938;4.624;2023-07-30T02:01:19;15.32;;;2.95;;
41631;SDS011;37452;51.938;4.624;2023-07-30T02:03:45;8.57;;;2.33;;
41631;SDS011;37452;51.938;4.624;2023-07-30T02:06:10;14.70;;;2.70;;
41631;SDS011;37452;51.938;4.624;2023-07-30T02:08:36;11.27;;;1.95;;
41631;SDS011;37452;51.938;4.624;2023-07-30T02:11:02;8.75;;;2.30;;
41631;SDS011;37452;51.938;4.624;2023-07-30T02:13:27;9.32;;;2.40;;
41631;SDS011;37452;51.938;4.624;2023-07-30T02:15:52;13.55;;;2.47;;
41631;SDS011;37452;51.938;4.624;2023-07-30T02:18:18;10.75;;;2.72;;
41631;SDS011;37452;51.938;4.624;2023-07-30T02:20:43;18.77;;;3.20;;
41631;SDS011;37452;51.938;4.624;2023-07-30T02:23:08;23.02;;;2.90;;
41631;SDS011;37452;51.938;4.624;2023-07-30T02:25:34;9.63;;;2.70;;
41631;SDS011;37452;51.938;4.624;2023-07-30T02:28:00;17.60;;;2.63;;
41631;SDS011;37452;51.938;4.624;2023-07-30T02:30:26;11.23;;;2.38;;
41631;SDS011;37452;51.938;4.624;2023-07-30T02:32:52;9.23;;;2.72;;
41631;SDS011;37452;51.938;4.624;2023-07-30T02:35:17;13.98;;;2.88;;
41631;SDS011;37452;51.938;4.624;2023-07-30T02:37:43;17.63;;;3.17;;
41631;SDS011;37452;51.938;4.624;2023-07-30T02:40:08;16.73;;;2.83;;
41631;SDS011;37452;51.938;4.624;2023-07-30T02:42:34;15.15;;;2.95;;
41631;SDS011;37452;51.938;4.624;2023-07-30T02:44:59;19.95;;;2.53;;
41631;SDS011;37452;51.938;4.624;2023-07-30T02:47:25;15.68;;;2.65;;
41631;SDS011;37452;51.938;4.624;2023-07-30T02:49:50;18.27;;;2.70;;
41631;SDS011;37452;51.938;4.624;2023-07-30T02:52:15;22.05;;;3.20;;
41631;SDS011;37452;51.938;4.624;2023-07-30T02:54:41;14.20;;;3.33;;
41631;SDS011;37452;51.938;4.624;2023-07-30T02:57:06;16.00;;;3.10;;
41631;SDS011;37452;51.938;4.624;2023-07-30T02:59:31;12.18;;;3.38;;
41631;SDS011;37452;51.938;4.624;2023-07-30T03:02:00;15.25;;;2.97;;
41631;SDS011;37452;51.938;4.624;2023-07-30T03:04:26;23.52;;;2.75;;
41631;SDS011;37452;51.938;4.624;2023-07-30T03:06:52;22.08;;;3.50;;
41631;SDS011;37452;51.938;4.624;2023-07-30T03:09:17;22.23;;;3.40;;
41631;SDS011;37452;51.938;4.624;2023-07-30T03:11:42;15.25;;;2.75;;
41631;SDS011;37452;51.938;4.624;2023-07-30T03:14:08;24.00;;;3.38;;
41631;SDS011;37452;51.938;4.624;2023-07-30T03:16:33;16.50;;;3.50;;
41631;SDS011;37452;51.938;4.624;2023-07-30T03:18:58;20.85;;;4.90;;
41631;SDS011;37452;51.938;4.624;2023-07-30T03:21:23;16.73;;;2.88;;
41631;SDS011;37452;51.938;4.624;2023-07-30T03:23:49;14.73;;;3.60;;
41631;SDS011;37452;51.938;4.624;2023-07-30T03:26:14;18.33;;;2.97;;
41631;SDS011;37452;51.938;4.624;2023-07-30T03:28:40;14.90;;;3.00;;
41631;SDS011;37452;51.938;4.624;2023-07-30T03:31:05;15.93;;;3.20;;
41631;SDS011;37452;51.938;4.624;2023-07-30T03:33:30;18.25;;;2.70;;
41631;SDS011;37452;51.938;4.624;2023-07-30T03:35:56;18.30;;;2.58;;
41631;SDS011;37452;51.938;4.624;2023-07-30T03:38:21;22.55;;;3.72;;
41631;SDS011;37452;51.938;4.624;2023-07-30T03:40:47;19.40;;;2.97;;
41631;SDS011;37452;51.938;4.624;2023-07-30T03:43:12;30.92;;;3.67;;
41631;SDS011;37452;51.938;4.624;2023-07-30T03:45:37;23.08;;;3.10;;
41631;SDS011;37452;51.938;4.624;2023-07-30T03:48:03;17.83;;;3.03;;
41631;SDS011;37452;51.938;4.624;2023-07-30T03:50:28;13.68;;;3.25;;
41631;SDS011;37452;51.938;4.624;2023-07-30T03:52:53;19.00;;;3.67;;
41631;SDS011;37452;51.938;4.624;2023-07-30T03:55:19;21.77;;;2.95;;
41631;SDS011;37452;51.938;4.624;2023-07-30T03:57:44;14.80;;;3.30;;
41631;SDS011;37452;51.938;4.624;2023-07-30T04:00:09;15.68;;;3.42;;
41631;SDS011;37452;51.938;4.624;2023-07-30T04:02:35;26.42;;;3.65;;
41631;SDS011;37452;51.938;4.624;2023-07-30T04:05:00;20.27;;;3.00;;
41631;SDS011;37452;51.938;4.624;2023-07-30T04:07:26;15.57;;;3.28;;
41631;SDS011;37452;51.938;4.624;2023-07-30T04:09:51;23.30;;;4.13;;
41631;SDS011;37452;51.938;4.624;2023-07-30T04:12:16;16.38;;;3.00;;
41631;SDS011;37452;51.938;4.624;2023-07-30T04:14:42;19.02;;;3.33;;
41631;SDS011;37452;51.938;4.624;2023-07-30T04:17:08;16.73;;;3.42;;
41631;SDS011;37452;51.938;4.624;2023-07-30T04:19:33;25.05;;;4.15;;
41631;SDS011;37452;51.938;4.624;2023-07-30T04:21:58;24.75;;;3.20;;
41631;SDS011;37452;51.938;4.624;2023-07-30T04:24:23;16.92;;;3.15;;
41631;SDS011;37452;51.938;4.624;2023-07-30T04:26:51;12.07;;;2.88;;
41631;SDS011;37452;51.938;4.624;2023-07-30T04:29:16;24.02;;;3.40;;
41631;SDS011;37452;51.938;4.624;2023-07-30T04:31:41;13.25;;;2.30;;
41631;SDS011;37452;51.938;4.624;2023-07-30T04:34:06;13.82;;;3.00;;
41631;SDS011;37452;51.938;4.624;2023-07-30T04:36:32;20.55;;;3.53;;
41631;SDS011;37452;51.938;4.624;2023-07-30T04:38:57;20.42;;;3.30;;
41631;SDS011;37452;51.938;4.624;2023-07-30T04:41:22;24.45;;;3.08;;
41631;SDS011;37452;51.938;4.624;2023-07-30T04:43:48;18.35;;;3.45;;
41631;SDS011;37452;51.938;4.624;2023-07-30T04:46:13;13.07;;;2.80;;
41631;SDS011;37452;51.938;4.624;2023-07-30T04:48:38;21.02;;;3.38;;
41631;SDS011;37452;51.938;4.624;2023-07-30T04:51:05;22.23;;;3.42;;
41631;SDS011;37452;51.938;4.624;2023-07-30T04:53:30;12.68;;;2.50;;
41631;SDS011;37452;51.938;4.624;2023-07-30T04:55:56;13.80;;;2.95;;
41631;SDS011;37452;51.938;4.624;2023-07-30T04:58:22;15.85;;;3.33;;
41631;SDS011;37452;51.938;4.624;2023-07-30T05:00:47;15.13;;;3.05;;
41631;SDS011;37452;51.938;4.624;2023-07-30T05:03:13;19.30;;;3.65;;
41631;SDS011;37452;51.938;4.624;2023-07-30T05:05:39;12.80;;;2.65;;
41631;SDS011;37452;51.938;4.624;2023-07-30T05:08:04;14.55;;;2.95;;
41631;SDS011;37452;51.938;4.624;2023-07-30T05:10:29;13.93;;;3.65;;
41631;SDS011;37452;51.938;4.624;2023-07-30T05:12:55;20.73;;;3.28;;
41631;SDS011;37452;51.938;4.624;2023-07-30T05:15:20;22.27;;;3.08;;
41631;SDS011;37452;51.938;4.624;2023-07-30T05:17:45;14.90;;;3.47;;
41631;SDS011;37452;51.938;4.624;2023-07-30T05:20:11;21.83;;;4.30;;
41631;SDS011;37452;51.938;4.624;2023-07-30T05:22:36;13.50;;;3.17;;
41631;SDS011;37452;51.938;4.624;2023-07-30T05:25:02;15.00;;;3.70;;
41631;SDS011;37452;51.938;4.624;2023-07-30T05:27:27;22.08;;;4.30;;
41631;SDS011;37452;51.938;4.624;2023-07-30T05:29:54;16.15;;;3.67;;
41631;SDS011;37452;51.938;4.624;2023-07-30T05:32:19;11.43;;;2.90;;
41631;SDS011;37452;51.938;4.624;2023-07-30T05:34:45;20.42;;;4.05;;
41631;SDS011;37452;51.938;4.624;2023-07-30T05:37:10;21.45;;;4.05;;
41631;SDS011;37452;51.938;4.624;2023-07-30T05:39:35;23.48;;;3.42;;
41631;SDS011;37452;51.938;4.624;2023-07-30T05:42:01;14.85;;;4.07;;
41631;SDS011;37452;51.938;4.624;2023-07-30T05:44:27;17.33;;;3.28;;
41631;SDS011;37452;51.938;4.624;2023-07-30T05:46:52;22.58;;;3.25;;
41631;SDS011;37452;51.938;4.624;2023-07-30T05:49:18;15.57;;;3.05;;
41631;SDS011;37452;51.938;4.624;2023-07-30T05:51:43;16.88;;;3.05;;
41631;SDS011;37452;51.938;4.624;2023-07-30T05:54:08;14.27;;;2.80;;
41631;SDS011;37452;51.938;4.624;2023-07-30T05:56:33;16.77;;;3.28;;
41631;SDS011;37452;51.938;4.624;2023-07-30T05:58:59;16.98;;;2.72;;
41631;SDS011;37452;51.938;4.624;2023-07-30T06:01:24;16.05;;;3.13;;
41631;SDS011;37452;51.938;4.624;2023-07-30T06:03:49;23.15;;;3.65;;
41631;SDS011;37452;51.938;4.624;2023-07-30T06:06:15;14.93;;;2.58;;
41631;SDS011;37452;51.938;4.624;2023-07-30T06:08:41;17.45;;;3.20;;
41631;SDS011;37452;51.938;4.624;2023-07-30T06:11:06;17.15;;;2.97;;
41631;SDS011;37452;51.938;4.624;2023-07-30T06:13:32;14.57;;;2.88;;
41631;SDS011;37452;51.938;4.624;2023-07-30T06:15:57;19.08;;;3.17;;
41631;SDS011;37452;51.938;4.624;2023-07-30T06:18:22;17.65;;;2.92;;
41631;SDS011;37452;51.938;4.624;2023-07-30T06:20:48;13.77;;;2.97;;
41631;SDS011;37452;51.938;4.624;2023-07-30T06:23:13;18.08;;;3.38;;
41631;SDS011;37452;51.938;4.624;2023-07-30T06:25:38;18.75;;;3.25;;
41631;SDS011;37452;51.938;4.624;2023-07-30T06:28:04;13.75;;;2.67;;
41631;SDS011;37452;51.938;4.624;2023-07-30T06:30:30;12.23;;;2.55;;
41631;SDS011;37452;51.938;4.624;2023-07-30T06:32:56;13.52;;;2.67;;
41631;SDS011;37452;51.938;4.624;2023-07-30T06:35:22;8.02;;;2.00;;
41631;SDS011;37452;51.938;4.624;2023-07-30T06:37:48;13.38;;;2.47;;
41631;SDS011;37452;51.938;4.624;2023-07-30T06:40:13;18.27;;;3.55;;
41631;SDS011;37452;51.938;4.624;2023-07-30T06:42:38;19.52;;;2.05;;
41631;SDS011;37452;51.938;4.624;2023-07-30T06:45:04;16.27;;;2.85;;
41631;SDS011;37452;51.938;4.624;2023-07-30T06:47:29;18.60;;;2.55;;
41631;SDS011;37452;51.938;4.624;2023-07-30T06:49:55;18.63;;;3.63;;
41631;SDS011;37452;51.938;4.624;2023-07-30T06:52:20;17.77;;;3.08;;
41631;SDS011;37452;51.938;4.624;2023-07-30T06:54:45;14.52;;;2.50;;
41631;SDS011;37452;51.938;4.624;2023-07-30T06:57:11;15.25;;;2.10;;
41631;SDS011;37452;51.938;4.624;2023-07-30T06:59:36;20.33;;;3.00;;
41631;SDS011;37452;51.938;4.624;2023-07-30T07:02:01;19.02;;;2.78;;
41631;SDS011;37452;51.938;4.624;2023-07-30T07:04:27;17.08;;;2.97;;
41631;SDS011;37452;51.938;4.624;2023-07-30T07:06:52;15.07;;;2.90;;
41631;SDS011;37452;51.938;4.624;2023-07-30T07:09:18;21.02;;;2.85;;
41631;SDS011;37452;51.938;4.624;2023-07-30T07:11:43;14.65;;;2.45;;
41631;SDS011;37452;51.938;4.624;2023-07-30T07:14:08;16.25;;;2.53;;
41631;SDS011;37452;51.938;4.624;2023-07-30T07:16:34;13.52;;;2.75;;
41631;SDS011;37452;51.938;4.624;2023-07-30T07:18:59;19.75;;;2.97;;
41631;SDS011;37452;51.938;4.624;2023-07-30T07:21:25;17.95;;;2.88;;
41631;SDS011;37452;51.938;4.624;2023-07-30T07:23:51;11.45;;;2.60;;
41631;SDS011;37452;51.938;4.624;2023-07-30T07:26:16;18.35;;;2.80;;
41631;SDS011;37452;51.938;4.624;2023-07-30T07:28:42;11.55;;;2.83;;
41631;SDS011;37452;51.938;4.624;2023-07-30T07:31:07;11.23;;;2.33;;
41631;SDS011;37452;51.938;4.624;2023-07-30T07:33:32;17.88;;;4.28;;
41631;SDS011;37452;51.938;4.624;2023-07-30T07:36:07;14.05;;;2.72;;
41631;SDS011;37452;51.938;4.624;2023-07-30T07:38:33;13.48;;;2.40;;
41631;SDS011;37452;51.938;4.624;2023-07-30T07:40:59;12.15;;;2.80;;
41631;SDS011;37452;51.938;4.624;2023-07-30T07:43:25;16.60;;;2.40;;
41631;SDS011;37452;51.938;4.624;2023-07-30T07:45:51;10.55;;;2.25;;
41631;SDS011;37452;51.938;4.624;2023-07-30T07:48:16;10.13;;;2.25;;
41631;SDS011;37452;51.938;4.624;2023-07-30T07:50:42;14.20;;;2.60;;
41631;SDS011;37452;51.938;4.624;2023-07-30T07:53:07;16.73;;;2.88;;
41631;SDS011;37452;51.938;4.624;2023-07-30T07:55:32;11.27;;;2.40;;
41631;SDS011;37452;51.938;4.624;2023-07-30T07:57:58;16.08;;;2.88;;
41631;SDS011;37452;51.938;4.624;2023-07-30T08:00:23;12.85;;;2.40;;
41631;SDS011;37452;51.938;4.624;2023-07-30T08:02:48;22.08;;;3.38;;
41631;SDS011;37452;51.938;4.624;2023-07-30T08:05:14;13.40;;;2.50;;
41631;SDS011;37452;51.938;4.624;2023-07-30T08:07:39;12.95;;;2.10;;
41631;SDS011;37452;51.938;4.624;2023-07-30T08:10:05;15.48;;;2.67;;
41631;SDS011;37452;51.938;4.624;2023-07-30T08:12:31;10.13;;;1.90;;
41631;SDS011;37452;51.938;4.624;2023-07-30T08:14:57;16.45;;;2.20;;
41631;SDS011;37452;51.938;4.624;2023-07-30T08:17:23;8.02;;;2.70;;
41631;SDS011;37452;51.938;4.624;2023-07-30T08:19:49;12.45;;;2.67;;
41631;SDS011;37452;51.938;4.624;2023-07-30T08:22:14;17.10;;;2.95;;
41631;SDS011;37452;51.938;4.624;2023-07-30T08:24:40;14.43;;;2.20;;
41631;SDS011;37452;51.938;4.624;2023-07-30T08:27:05;12.82;;;1.85;;
41631;SDS011;37452;51.938;4.624;2023-07-30T08:29:30;10.48;;;2.50;;
41631;SDS011;37452;51.938;4.624;2023-07-30T08:31:56;11.82;;;2.88;;
41631;SDS011;37452;51.938;4.624;2023-07-30T08:34:21;10.85;;;2.03;;
41631;SDS011;37452;51.938;4.624;2023-07-30T08:36:48;6.15;;;1.83;;
41631;SDS011;37452;51.938;4.624;2023-07-30T08:39:13;16.13;;;3.15;;
41631;SDS011;37452;51.938;4.624;2023-07-30T08:41:38;17.95;;;2.47;;
41631;SDS011;37452;51.938;4.624;2023-07-30T08:44:04;14.25;;;2.58;;
41631;SDS011;37452;51.938;4.624;2023-07-30T08:46:29;15.00;;;2.08;;
41631;SDS011;37452;51.938;4.624;2023-07-30T08:48:55;11.75;;;1.90;;
41631;SDS011;37452;51.938;4.624;2023-07-30T08:51:22;11.40;;;2.33;;
41631;SDS011;37452;51.938;4.624;2023-07-30T08:53:49;8.13;;;1.40;;
41631;SDS011;37452;51.938;4.624;2023-07-30T08:56:16;11.80;;;1.92;;
41631;SDS011;37452;51.938;4.624;2023-07-30T08:58:42;11.75;;;1.75;;
41631;SDS011;37452;51.938;4.624;2023-07-30T09:01:09;6.28;;;1.40;;
41631;SDS011;37452;51.938;4.624;2023-07-30T09:03:37;10.30;;;1.58;;
41631;SDS011;37452;51.938;4.624;2023-07-30T09:06:04;6.25;;;1.13;;
41631;SDS011;37452;51.938;4.624;2023-07-30T09:08:30;8.50;;;1.38;;
41631;SDS011;37452;51.938;4.624;2023-07-30T09:10:57;6.60;;;1.55;;
41631;SDS011;37452;51.938;4.624;2023-07-30T09:13:30;6.15;;;1.15;;
41631;SDS011;37452;51.938;4.624;2023-07-30T09:16:07;5.80;;;1.50;;
41631;SDS011;37452;51.938;4.624;2023-07-30T09:18:38;6.97;;;1.53;;
41631;SDS011;37452;51.938;4.624;2023-07-30T09:21:07;7.93;;;1.30;;
41631;SDS011;37452;51.938;4.624;2023-07-30T09:23:38;8.80;;;1.67;;
41631;SDS011;37452;51.938;4.624;2023-07-30T09:26:05;10.45;;;1.50;;
41631;SDS011;37452;51.938;4.624;2023-07-30T09:28:30;6.20;;;1.25;;
41631;SDS011;37452;51.938;4.624;2023-07-30T09:31:03;7.40;;;1.42;;
41631;SDS011;37452;51.938;4.624;2023-07-30T09:33:31;9.70;;;1.63;;
41631;SDS011;37452;51.938;4.624;2023-07-30T09:35:58;6.38;;;1.10;;
41631;SDS011;37452;51.938;4.624;2023-07-30T09:38:23;6.70;;;1.17;;
41631;SDS011;37452;51.938;4.624;2023-07-30T09:40:50;9.15;;;1.05;;
41631;SDS011;37452;51.938;4.624;2023-07-30T09:43:16;6.20;;;1.23;;
41631;SDS011;37452;51.938;4.624;2023-07-30T09:45:43;7.88;;;1.65;;
41631;SDS011;37452;51.938;4.624;2023-07-30T09:48:12;8.73;;;1.48;;
41631;SDS011;37452;51.938;4.624;2023-07-30T09:50:37;7.55;;;1.17;;
41631;SDS011;37452;51.938;4.624;2023-07-30T09:53:03;5.72;;;1.52;;
41631;SDS011;37452;51.938;4.624;2023-07-30T09:55:29;5.05;;;1.13;;
41631;SDS011;37452;51.938;4.624;2023-07-30T09:57:55;8.25;;;1.17;;
41631;SDS011;37452;51.938;4.624;2023-07-30T10:00:20;5.43;;;1.17;;
41631;SDS011;37452;51.938;4.624;2023-07-30T10:02:46;8.80;;;1.48;;
41631;SDS011;37452;51.938;4.624;2023-07-30T10:05:17;5.60;;;1.00;;
41631;SDS011;37452;51.938;4.624;2023-07-30T10:07:58;5.90;;;0.90;;
41631;SDS011;37452;51.938;4.624;2023-07-30T10:10:25;6.35;;;1.23;;
41631;SDS011;37452;51.938;4.624;2023-07-30T10:12:53;4.80;;;1.10;;
41631;SDS011;37452;51.938;4.624;2023-07-30T10:15:22;5.30;;;1.05;;
41631;SDS011;37452;51.938;4.624;2023-07-30T10:17:48;5.00;;;1.10;;
41631;SDS011;37452;51.938;4.624;2023-07-30T10:20:20;6.20;;;0.85;;
41631;SDS011;37452;51.938;4.624;2023-07-30T10:22:47;5.55;;;1.02;;
41631;SDS011;37452;51.938;4.624;2023-07-30T10:25:20;8.60;;;0.80;;
41631;SDS011;37452;51.938;4.624;2023-07-30T10:27:49;4.63;;;0.85;;
41631;SDS011;37452;51.938;4.624;2023-07-30T10:30:16;6.28;;;1.60;;
41631;SDS011;37452;51.938;4.624;2023-07-30T10:38:16;5.18;;;1.35;;
41631;SDS011;37452;51.938;4.624;2023-07-30T10:40:59;5.00;;;0.90;;
41631;SDS011;37452;51.938;4.624;2023-07-30T10:43:40;6.53;;;1.13;;
41631;SDS011;37452;51.938;4.624;2023-07-30T10:46:08;4.97;;;1.05;;
41631;SDS011;37452;51.938;4.624;2023-07-30T10:48:38;6.53;;;1.08;;
41631;SDS011;37452;51.938;4.624;2023-07-30T10:51:06;5.47;;;0.93;;
41631;SDS011;37452;51.938;4.624;2023-07-30T10:53:33;4.28;;;0.93;;
41631;SDS011;37452;51.938;4.624;2023-07-30T10:56:01;3.53;;;0.73;;
41631;SDS011;37452;51.938;4.624;2023-07-30T10:58:31;5.25;;;0.80;;
41631;SDS011;37452;51.938;4.624;2023-07-30T11:00:59;7.60;;;0.80;;
41631;SDS011;37452;51.938;4.624;2023-07-30T11:03:26;4.93;;;0.90;;
41631;SDS011;37452;51.938;4.624;2023-07-30T11:05:53;6.82;;;0.80;;
41631;SDS011;37452;51.938;4.624;2023-07-30T11:08:19;4.75;;;1.20;;
41631;SDS011;37452;51.938;4.624;2023-07-30T11:10:44;3.92;;;1.10;;
41631;SDS011;37452;51.938;4.624;2023-07-30T11:13:12;6.00;;;1.23;;
41631;SDS011;37452;51.938;4.624;2023-07-30T11:15:42;5.50;;;1.27;;
41631;SDS011;37452;51.938;4.624;2023-07-30T11:18:08;7.82;;;1.58;;
41631;SDS011;37452;51.938;4.624;2023-07-30T11:20:34;4.78;;;0.90;;
41631;SDS011;37452;51.938;4.624;2023-07-30T11:23:00;8.85;;;1.20;;
41631;SDS011;37452;51.938;4.624;2023-07-30T11:25:25;8.95;;;1.27;;
41631;SDS011;37452;51.938;4.624;2023-07-30T11:27:51;9.65;;;1.33;;
41631;SDS011;37452;51.938;4.624;2023-07-30T11:30:17;12.90;;;1.10;;
41631;SDS011;37452;51.938;4.624;2023-07-30T11:32:43;6.65;;;1.02;;
41631;SDS011;37452;51.938;4.624;2023-07-30T11:35:10;3.28;;;1.05;;
41631;SDS011;37452;51.938;4.624;2023-07-30T11:37:37;6.75;;;1.08;;
41631;SDS011;37452;51.938;4.624;2023-07-30T11:40:07;4.53;;;0.90;;
41631;SDS011;37452;51.938;4.624;2023-07-30T11:42:34;5.85;;;1.02;;
41631;SDS011;37452;51.938;4.624;2023-07-30T11:45:16;9.30;;;2.00;;
41631;SDS011;37452;51.938;4.624;2023-07-30T11:47:43;4.82;;;0.98;;
41631;SDS011;37452;51.938;4.624;2023-07-30T11:50:08;9.05;;;0.88;;
41631;SDS011;37452;51.938;4.624;2023-07-30T11:52:34;15.18;;;1.45;;
41631;SDS011;37452;51.938;4.624;2023-07-30T11:55:02;12.48;;;1.02;;
41631;SDS011;37452;51.938;4.624;2023-07-30T11:57:37;6.05;;;1.15;;
41631;SDS011;37452;51.938;4.624;2023-07-30T12:00:02;7.00;;;1.42;;
41631;SDS011;37452;51.938;4.624;2023-07-30T12:02:29;5.47;;;1.00;;
41631;SDS011;37452;51.938;4.624;2023-07-30T12:04:54;4.32;;;0.93;;
41631;SDS011;37452;51.938;4.624;2023-07-30T12:07:23;5.15;;;0.90;;
41631;SDS011;37452;51.938;4.624;2023-07-30T12:09:49;3.88;;;0.80;;
41631;SDS011;37452;51.938;4.624;2023-07-30T12:12:15;3.58;;;0.85;;
41631;SDS011;37452;51.938;4.624;2023-07-30T12:14:44;4.28;;;0.88;;
41631;SDS011;37452;51.938;4.624;2023-07-30T12:17:19;6.63;;;1.77;;
41631;SDS011;37452;51.938;4.624;2023-07-30T12:19:44;6.90;;;1.00;;
41631;SDS011;37452;51.938;4.624;2023-07-30T12:22:10;5.85;;;1.00;;
41631;SDS011;37452;51.938;4.624;2023-07-30T12:24:35;5.72;;;0.88;;
41631;SDS011;37452;51.938;4.624;2023-07-30T12:27:01;3.85;;;0.80;;
41631;SDS011;37452;51.938;4.624;2023-07-30T12:29:26;6.57;;;1.20;;
41631;SDS011;37452;51.938;4.624;2023-07-30T12:31:52;12.23;;;1.10;;
41631;SDS011;37452;51.938;4.624;2023-07-30T12:34:18;8.38;;;1.13;;
41631;SDS011;37452;51.938;4.624;2023-07-30T12:36:45;6.38;;;0.93;;
41631;SDS011;37452;51.938;4.624;2023-07-30T12:39:10;3.90;;;0.80;;
41631;SDS011;37452;51.938;4.624;2023-07-30T12:41:35;7.65;;;1.00;;
41631;SDS011;37452;51.938;4.624;2023-07-30T12:44:01;8.13;;;0.95;;
41631;SDS011;37452;51.938;4.624;2023-07-30T12:46:28;4.68;;;1.00;;
41631;SDS011;37452;51.938;4.624;2023-07-30T12:48:55;3.45;;;0.85;;
41631;SDS011;37452;51.938;4.624;2023-07-30T12:51:21;4.50;;;1.05;;
41631;SDS011;37452;51.938;4.624;2023-07-30T12:53:46;2.53;;;0.77;;
41631;SDS011;37452;51.938;4.624;2023-07-30T12:56:11;3.25;;;0.63;;
41631;SDS011;37452;51.938;4.624;2023-07-30T12:58:37;7.18;;;0.90;;
41631;SDS011;37452;51.938;4.624;2023-07-30T13:01:07;5.55;;;0.70;;
41631;SDS011;37452;51.938;4.624;2023-07-30T13:03:32;3.50;;;0.73;;
41631;SDS011;37452;51.938;4.624;2023-07-30T13:05:58;4.25;;;0.80;;
41631;SDS011;37452;51.938;4.624;2023-07-30T13:08:23;7.45;;;1.33;;
41631;SDS011;37452;51.938;4.624;2023-07-30T13:10:49;5.45;;;0.85;;
41631;SDS011;37452;51.938;4.624;2023-07-30T13:13:14;5.68;;;0.98;;
41631;SDS011;37452;51.938;4.624;2023-07-30T13:15:39;5.82;;;1.00;;
41631;SDS011;37452;51.938;4.624;2023-07-30T13:18:05;4.80;;;0.95;;
41631;SDS011;37452;51.938;4.624;2023-07-30T13:20:30;3.90;;;0.90;;
41631;SDS011;37452;51.938;4.624;2023-07-30T13:22:57;3.53;;;0.73;;
41631;SDS011;37452;51.938;4.624;2023-07-30T13:25:22;3.20;;;0.75;;
41631;SDS011;37452;51.938;4.624;2023-07-30T13:27:48;9.93;;;1.25;;
41631;SDS011;37452;51.938;4.624;2023-07-30T13:30:13;6.03;;;0.88;;
41631;SDS011;37452;51.938;4.624;2023-07-30T13:32:40;4.18;;;0.80;;
41631;SDS011;37452;51.938;4.624;2023-07-30T13:35:05;6.18;;;1.10;;
41631;SDS011;37452;51.938;4.624;2023-07-30T13:37:31;9.32;;;1.20;;
41631;SDS011;37452;51.938;4.624;2023-07-30T13:39:56;5.80;;;0.98;;
41631;SDS011;37452;51.938;4.624;2023-07-30T13:42:22;8.88;;;1.30;;
41631;SDS011;37452;51.938;4.624;2023-07-30T13:44:47;6.25;;;1.10;;
41631;SDS011;37452;51.938;4.624;2023-07-30T13:47:12;7.43;;;1.30;;
41631;SDS011;37452;51.938;4.624;2023-07-30T13:49:38;7.18;;;1.20;;
41631;SDS011;37452;51.938;4.624;2023-07-30T13:52:04;9.27;;;1.17;;
41631;SDS011;37452;51.938;4.624;2023-07-30T13:54:30;6.32;;;1.10;;
41631;SDS011;37452;51.938;4.624;2023-07-30T13:56:55;8.70;;;1.45;;
41631;SDS011;37452;51.938;4.624;2023-07-30T13:59:20;7.45;;;1.50;;
41631;SDS011;37452;51.938;4.624;2023-07-30T14:01:46;8.68;;;1.80;;
41631;SDS011;37452;51.938;4.624;2023-07-30T14:04:11;7.15;;;1.50;;
41631;SDS011;37452;51.938;4.624;2023-07-30T14:06:36;9.93;;;1.75;;
41631;SDS011;37452;51.938;4.624;2023-07-30T14:09:02;9.48;;;1.80;;
41631;SDS011;37452;51.938;4.624;2023-07-30T14:11:28;10.70;;;1.63;;
41631;SDS011;37452;51.938;4.624;2023-07-30T14:13:54;9.70;;;1.73;;
41631;SDS011;37452;51.938;4.624;2023-07-30T14:16:21;10.18;;;1.70;;
41631;SDS011;37452;51.938;4.624;2023-07-30T14:18:47;9.77;;;1.80;;
41631;SDS011;37452;51.938;4.624;2023-07-30T14:21:12;8.43;;;1.75;;
41631;SDS011;37452;51.938;4.624;2023-07-30T14:23:38;6.55;;;1.38;;
41631;SDS011;37452;51.938;4.624;2023-07-30T14:26:04;5.40;;;1.50;;
41631;SDS011;37452;51.938;4.624;2023-07-30T14:28:29;7.88;;;1.45;;
41631;SDS011;37452;51.938;4.624;2023-07-30T14:30:54;7.28;;;1.25;;
41631;SDS011;37452;51.938;4.624;2023-07-30T14:33:20;9.10;;;1.65;;
41631;SDS011;37452;51.938;4.624;2023-07-30T14:35:45;10.00;;;1.55;;
41631;SDS011;37452;51.938;4.624;2023-07-30T14:38:11;7.93;;;1.30;;
41631;SDS011;37452;51.938;4.624;2023-07-30T14:40:37;6.93;;;1.85;;